sensor_id;sensor_type;location;lat;lon;timestamp;P1;durP1;ratioP1;P2;durP2;ratioP2
30605;SDS011;17371;51.328;3.860;2023-03-14T00:01:28;9.87;;;2.10;;
30605;SDS011;17371;51.328;3.860;2023-03-14T00:03:54;7.83;;;1.87;;
30605;SDS011;17371;51.328;3.860;2023-03-14T00:06:20;9.73;;;1.73;;
30605;SDS011;17371;51.328;3.860;2023-03-14T00:08:46;9.00;;;1.88;;
30605;SDS011;17371;51.328;3.860;2023-03-14T00:11:13;12.63;;;1.87;;
30605;SDS011;17371;51.328;3.860;2023-03-14T00:13:39;5.38;;;1.58;;
30605;SDS011;17371;51.328;3.860;2023-03-14T00:16:05;8.83;;;2.03;;
30605;SDS011;17371;51.328;3.860;2023-03-14T00:18:32;8.75;;;1.80;;
30605;SDS011;17371;51.328;3.860;2023-03-14T00:20:58;12.57;;;1.98;;
30605;SDS011;17371;51.328;3.860;2023-03-14T00:23:25;9.43;;;1.83;;
30605;SDS011;17371;51.328;3.860;2023-03-14T00:25:50;6.25;;;1.60;;
30605;SDS011;17371;51.328;3.860;2023-03-14T00:28:15;7.40;;;1.73;;
30605;SDS011;17371;51.328;3.860;2023-03-14T00:30:41;9.43;;;1.70;;
30605;SDS011;17371;51.328;3.860;2023-03-14T00:33:06;9.75;;;1.48;;
30605;SDS011;17371;51.328;3.860;2023-03-14T00:35:32;6.77;;;2.10;;
30605;SDS011;17371;51.328;3.860;2023-03-14T00:37:57;5.90;;;1.60;;
30605;SDS011;17371;51.328;3.860;2023-03-14T00:40:24;7.40;;;2.00;;
30605;SDS011;17371;51.328;3.860;2023-03-14T00:42:49;7.18;;;1.80;;
30605;SDS011;17371;51.328;3.860;2023-03-14T00:45:15;6.70;;;1.77;;
30605;SDS011;17371;51.328;3.860;2023-03-14T00:47:40;7.90;;;2.35;;
30605;SDS011;17371;51.328;3.860;2023-03-14T00:50:06;8.43;;;1.73;;
30605;SDS011;17371;51.328;3.860;2023-03-14T00:52:32;8.20;;;2.10;;
30605;SDS011;17371;51.328;3.860;2023-03-14T00:54:57;10.63;;;2.00;;
30605;SDS011;17371;51.328;3.860;2023-03-14T00:57:24;9.53;;;2.30;;
30605;SDS011;17371;51.328;3.860;2023-03-14T00:59:50;12.25;;;2.35;;
30605;SDS011;17371;51.328;3.860;2023-03-14T01:02:16;7.47;;;2.42;;
30605;SDS011;17371;51.328;3.860;2023-03-14T01:04:41;14.93;;;2.03;;
30605;SDS011;17371;51.328;3.860;2023-03-14T01:07:07;11.23;;;2.20;;
30605;SDS011;17371;51.328;3.860;2023-03-14T01:09:32;12.77;;;2.43;;
30605;SDS011;17371;51.328;3.860;2023-03-14T01:11:57;14.07;;;2.87;;
30605;SDS011;17371;51.328;3.860;2023-03-14T01:14:24;6.80;;;2.72;;
30605;SDS011;17371;51.328;3.860;2023-03-14T01:16:50;13.97;;;1.97;;
30605;SDS011;17371;51.328;3.860;2023-03-14T01:19:15;11.00;;;2.22;;
30605;SDS011;17371;51.328;3.860;2023-03-14T01:21:40;11.00;;;2.58;;
30605;SDS011;17371;51.328;3.860;2023-03-14T01:24:06;11.47;;;1.90;;
30605;SDS011;17371;51.328;3.860;2023-03-14T01:26:32;12.47;;;2.60;;
30605;SDS011;17371;51.328;3.860;2023-03-14T01:28:59;12.35;;;2.40;;
30605;SDS011;17371;51.328;3.860;2023-03-14T01:31:26;9.35;;;2.40;;
30605;SDS011;17371;51.328;3.860;2023-03-14T01:33:52;9.50;;;2.13;;
30605;SDS011;17371;51.328;3.860;2023-03-14T01:36:18;7.57;;;2.13;;
30605;SDS011;17371;51.328;3.860;2023-03-14T01:38:43;10.70;;;2.30;;
30605;SDS011;17371;51.328;3.860;2023-03-14T01:41:11;7.80;;;2.22;;
30605;SDS011;17371;51.328;3.860;2023-03-14T01:43:38;12.93;;;2.60;;
30605;SDS011;17371;51.328;3.860;2023-03-14T01:46:17;15.05;;;2.65;;
30605;SDS011;17371;51.328;3.860;2023-03-14T01:48:47;13.10;;;2.30;;
30605;SDS011;17371;51.328;3.860;2023-03-14T01:51:16;11.65;;;2.50;;
30605;SDS011;17371;51.328;3.860;2023-03-14T01:53:43;8.68;;;2.10;;
30605;SDS011;17371;51.328;3.860;2023-03-14T01:56:09;9.15;;;1.95;;
30605;SDS011;17371;51.328;3.860;2023-03-14T01:58:36;10.77;;;2.47;;
30605;SDS011;17371;51.328;3.860;2023-03-14T02:01:02;10.25;;;2.70;;
30605;SDS011;17371;51.328;3.860;2023-03-14T02:03:28;11.90;;;2.60;;
30605;SDS011;17371;51.328;3.860;2023-03-14T02:05:57;12.70;;;2.38;;
30605;SDS011;17371;51.328;3.860;2023-03-14T02:08:25;17.33;;;3.87;;
30605;SDS011;17371;51.328;3.860;2023-03-14T02:10:52;14.20;;;2.92;;
30605;SDS011;17371;51.328;3.860;2023-03-14T02:13:18;9.45;;;2.60;;
30605;SDS011;17371;51.328;3.860;2023-03-14T02:15:44;11.25;;;2.20;;
30605;SDS011;17371;51.328;3.860;2023-03-14T02:18:10;9.43;;;2.07;;
30605;SDS011;17371;51.328;3.860;2023-03-14T02:20:38;11.98;;;2.40;;
30605;SDS011;17371;51.328;3.860;2023-03-14T02:23:09;10.93;;;2.50;;
30605;SDS011;17371;51.328;3.860;2023-03-14T02:25:38;11.13;;;2.58;;
30605;SDS011;17371;51.328;3.860;2023-03-14T02:28:07;14.00;;;2.42;;
30605;SDS011;17371;51.328;3.860;2023-03-14T02:30:32;10.50;;;2.15;;
30605;SDS011;17371;51.328;3.860;2023-03-14T02:32:59;8.27;;;2.17;;
30605;SDS011;17371;51.328;3.860;2023-03-14T02:35:28;9.52;;;2.22;;
30605;SDS011;17371;51.328;3.860;2023-03-14T02:37:55;9.32;;;2.28;;
30605;SDS011;17371;51.328;3.860;2023-03-14T02:40:22;7.60;;;1.90;;
30605;SDS011;17371;51.328;3.860;2023-03-14T02:42:48;7.75;;;1.77;;
30605;SDS011;17371;51.328;3.860;2023-03-14T02:45:34;8.13;;;2.00;;
30605;SDS011;17371;51.328;3.860;2023-03-14T02:48:04;12.18;;;2.47;;
30605;SDS011;17371;51.328;3.860;2023-03-14T02:50:33;7.93;;;2.40;;
30605;SDS011;17371;51.328;3.860;2023-03-14T02:52:58;7.68;;;2.00;;
30605;SDS011;17371;51.328;3.860;2023-03-14T02:55:24;6.17;;;1.87;;
30605;SDS011;17371;51.328;3.860;2023-03-14T02:57:49;9.43;;;2.27;;
30605;SDS011;17371;51.328;3.860;2023-03-14T03:00:15;7.85;;;1.42;;
30605;SDS011;17371;51.328;3.860;2023-03-14T03:02:43;7.20;;;1.90;;
30605;SDS011;17371;51.328;3.860;2023-03-14T03:05:08;9.98;;;1.98;;
30605;SDS011;17371;51.328;3.860;2023-03-14T03:07:33;8.00;;;1.93;;
30605;SDS011;17371;51.328;3.860;2023-03-14T03:09:59;8.00;;;1.73;;
30605;SDS011;17371;51.328;3.860;2023-03-14T03:12:24;6.07;;;2.20;;
30605;SDS011;17371;51.328;3.860;2023-03-14T03:14:50;8.80;;;1.70;;
30605;SDS011;17371;51.328;3.860;2023-03-14T03:17:15;9.23;;;1.97;;
30605;SDS011;17371;51.328;3.860;2023-03-14T03:19:42;7.13;;;1.70;;
30605;SDS011;17371;51.328;3.860;2023-03-14T03:22:07;5.80;;;1.70;;
30605;SDS011;17371;51.328;3.860;2023-03-14T03:24:33;9.70;;;2.40;;
30605;SDS011;17371;51.328;3.860;2023-03-14T03:26:58;8.18;;;1.67;;
30605;SDS011;17371;51.328;3.860;2023-03-14T03:29:24;7.13;;;2.40;;
30605;SDS011;17371;51.328;3.860;2023-03-14T03:31:49;9.70;;;2.10;;
30605;SDS011;17371;51.328;3.860;2023-03-14T03:34:14;5.47;;;1.53;;
30605;SDS011;17371;51.328;3.860;2023-03-14T03:36:41;7.53;;;1.70;;
30605;SDS011;17371;51.328;3.860;2023-03-14T03:39:07;9.37;;;1.43;;
30605;SDS011;17371;51.328;3.860;2023-03-14T03:41:32;5.38;;;1.50;;
30605;SDS011;17371;51.328;3.860;2023-03-14T03:43:58;6.03;;;1.40;;
30605;SDS011;17371;51.328;3.860;2023-03-14T03:46:23;3.57;;;1.50;;
30605;SDS011;17371;51.328;3.860;2023-03-14T03:48:53;9.00;;;1.98;;
30605;SDS011;17371;51.328;3.860;2023-03-14T03:51:19;7.72;;;1.92;;
30605;SDS011;17371;51.328;3.860;2023-03-14T03:53:46;5.47;;;1.60;;
30605;SDS011;17371;51.328;3.860;2023-03-14T03:56:11;3.67;;;1.67;;
30605;SDS011;17371;51.328;3.860;2023-03-14T03:58:37;7.33;;;1.73;;
30605;SDS011;17371;51.328;3.860;2023-03-14T04:01:02;6.83;;;2.00;;
30605;SDS011;17371;51.328;3.860;2023-03-14T04:03:28;4.00;;;1.50;;
30605;SDS011;17371;51.328;3.860;2023-03-14T04:05:59;5.97;;;2.23;;
30605;SDS011;17371;51.328;3.860;2023-03-14T04:08:25;6.47;;;1.98;;
30605;SDS011;17371;51.328;3.860;2023-03-14T04:10:54;6.07;;;1.87;;
30605;SDS011;17371;51.328;3.860;2023-03-14T04:13:20;6.53;;;1.70;;
30605;SDS011;17371;51.328;3.860;2023-03-14T04:15:46;6.83;;;2.20;;
30605;SDS011;17371;51.328;3.860;2023-03-14T04:18:11;5.83;;;2.10;;
30605;SDS011;17371;51.328;3.860;2023-03-14T04:20:36;4.40;;;2.20;;
30605;SDS011;17371;51.328;3.860;2023-03-14T04:23:02;4.90;;;2.17;;
30605;SDS011;17371;51.328;3.860;2023-03-14T04:25:27;7.13;;;2.30;;
30605;SDS011;17371;51.328;3.860;2023-03-14T04:27:54;6.47;;;2.37;;
30605;SDS011;17371;51.328;3.860;2023-03-14T04:30:19;5.20;;;2.47;;
30605;SDS011;17371;51.328;3.860;2023-03-14T04:32:45;3.53;;;2.13;;
30605;SDS011;17371;51.328;3.860;2023-03-14T04:35:10;8.80;;;2.53;;
30605;SDS011;17371;51.328;3.860;2023-03-14T04:37:35;5.00;;;2.50;;
30605;SDS011;17371;51.328;3.860;2023-03-14T04:40:01;5.90;;;2.50;;
30605;SDS011;17371;51.328;3.860;2023-03-14T04:42:26;6.05;;;2.60;;
30605;SDS011;17371;51.328;3.860;2023-03-14T04:44:53;5.87;;;2.43;;
30605;SDS011;17371;51.328;3.860;2023-03-14T04:47:18;5.68;;;2.60;;
30605;SDS011;17371;51.328;3.860;2023-03-14T04:49:44;8.20;;;2.47;;
30605;SDS011;17371;51.328;3.860;2023-03-14T04:52:09;6.37;;;2.70;;
30605;SDS011;17371;51.328;3.860;2023-03-14T04:54:34;6.67;;;2.67;;
30605;SDS011;17371;51.328;3.860;2023-03-14T04:57:00;6.37;;;2.50;;
30605;SDS011;17371;51.328;3.860;2023-03-14T04:59:25;7.87;;;2.60;;
30605;SDS011;17371;51.328;3.860;2023-03-14T05:01:52;11.40;;;3.00;;
30605;SDS011;17371;51.328;3.860;2023-03-14T05:04:17;8.73;;;3.03;;
30605;SDS011;17371;51.328;3.860;2023-03-14T05:06:43;7.67;;;3.00;;
30605;SDS011;17371;51.328;3.860;2023-03-14T05:09:08;8.00;;;2.80;;
30605;SDS011;17371;51.328;3.860;2023-03-14T05:11:33;6.60;;;2.97;;
30605;SDS011;17371;51.328;3.860;2023-03-14T05:13:59;5.87;;;2.97;;
30605;SDS011;17371;51.328;3.860;2023-03-14T05:16:24;6.63;;;3.23;;
30605;SDS011;17371;51.328;3.860;2023-03-14T05:18:51;8.60;;;3.60;;
30605;SDS011;17371;51.328;3.860;2023-03-14T05:21:16;8.70;;;3.45;;
30605;SDS011;17371;51.328;3.860;2023-03-14T05:23:42;8.47;;;3.17;;
30605;SDS011;17371;51.328;3.860;2023-03-14T05:26:07;7.50;;;3.40;;
30605;SDS011;17371;51.328;3.860;2023-03-14T05:28:32;6.68;;;3.85;;
30605;SDS011;17371;51.328;3.860;2023-03-14T05:30:58;6.77;;;3.03;;
30605;SDS011;17371;51.328;3.860;2023-03-14T05:33:23;7.17;;;3.33;;
30605;SDS011;17371;51.328;3.860;2023-03-14T05:35:50;8.27;;;3.63;;
30605;SDS011;17371;51.328;3.860;2023-03-14T05:38:15;8.35;;;3.30;;
30605;SDS011;17371;51.328;3.860;2023-03-14T05:40:41;5.73;;;2.23;;
30605;SDS011;17371;51.328;3.860;2023-03-14T05:43:06;1.80;;;0.90;;
30605;SDS011;17371;51.328;3.860;2023-03-14T05:45:31;3.70;;;1.23;;
30605;SDS011;17371;51.328;3.860;2023-03-14T05:47:57;4.30;;;1.30;;
30605;SDS011;17371;51.328;3.860;2023-03-14T05:50:22;3.58;;;1.17;;
30605;SDS011;17371;51.328;3.860;2023-03-14T05:52:49;3.20;;;0.80;;
30605;SDS011;17371;51.328;3.860;2023-03-14T05:55:14;11.93;;;1.60;;
30605;SDS011;17371;51.328;3.860;2023-03-14T05:57:40;8.23;;;1.17;;
30605;SDS011;17371;51.328;3.860;2023-03-14T06:00:06;9.23;;;1.40;;
30605;SDS011;17371;51.328;3.860;2023-03-14T06:02:32;2.65;;;1.30;;
30605;SDS011;17371;51.328;3.860;2023-03-14T06:04:57;8.87;;;1.30;;
30605;SDS011;17371;51.328;3.860;2023-03-14T06:07:23;5.53;;;1.50;;
30605;SDS011;17371;51.328;3.860;2023-03-14T06:09:49;5.50;;;1.13;;
30605;SDS011;17371;51.328;3.860;2023-03-14T06:12:15;2.40;;;1.20;;
30605;SDS011;17371;51.328;3.860;2023-03-14T06:14:40;4.23;;;1.20;;
30605;SDS011;17371;51.328;3.860;2023-03-14T06:17:05;5.00;;;1.10;;
30605;SDS011;17371;51.328;3.860;2023-03-14T06:19:31;3.08;;;1.20;;
30605;SDS011;17371;51.328;3.860;2023-03-14T06:21:56;8.95;;;1.67;;
30605;SDS011;17371;51.328;3.860;2023-03-14T06:24:22;7.87;;;1.27;;
30605;SDS011;17371;51.328;3.860;2023-03-14T06:26:48;4.93;;;1.50;;
30605;SDS011;17371;51.328;3.860;2023-03-14T06:29:14;7.85;;;1.10;;
30605;SDS011;17371;51.328;3.860;2023-03-14T06:31:39;4.47;;;1.30;;
30605;SDS011;17371;51.328;3.860;2023-03-14T06:34:04;6.60;;;1.60;;
30605;SDS011;17371;51.328;3.860;2023-03-14T06:36:30;5.30;;;1.63;;
30605;SDS011;17371;51.328;3.860;2023-03-14T06:38:55;8.30;;;1.20;;
30605;SDS011;17371;51.328;3.860;2023-03-14T06:41:21;5.57;;;1.53;;
30605;SDS011;17371;51.328;3.860;2023-03-14T06:43:47;6.05;;;1.40;;
30605;SDS011;17371;51.328;3.860;2023-03-14T06:46:13;3.33;;;1.30;;
30605;SDS011;17371;51.328;3.860;2023-03-14T06:48:38;5.47;;;1.73;;
30605;SDS011;17371;51.328;3.860;2023-03-14T06:51:04;8.95;;;1.70;;
30605;SDS011;17371;51.328;3.860;2023-03-14T06:53:29;5.80;;;1.10;;
30605;SDS011;17371;51.328;3.860;2023-03-14T06:55:55;8.13;;;1.50;;
30605;SDS011;17371;51.328;3.860;2023-03-14T06:58:20;5.75;;;1.30;;
30605;SDS011;17371;51.328;3.860;2023-03-14T07:00:47;1.85;;;1.23;;
30605;SDS011;17371;51.328;3.860;2023-03-14T07:03:13;9.40;;;1.63;;
30605;SDS011;17371;51.328;3.860;2023-03-14T07:05:38;10.23;;;1.60;;
30605;SDS011;17371;51.328;3.860;2023-03-14T07:08:04;5.00;;;1.40;;
30605;SDS011;17371;51.328;3.860;2023-03-14T07:10:29;7.35;;;1.50;;
30605;SDS011;17371;51.328;3.860;2023-03-14T07:12:55;4.70;;;1.60;;
30605;SDS011;17371;51.328;3.860;2023-03-14T07:15:20;11.27;;;2.00;;
30605;SDS011;17371;51.328;3.860;2023-03-14T07:17:47;6.80;;;1.53;;
30605;SDS011;17371;51.328;3.860;2023-03-14T07:20:12;14.48;;;1.90;;
30605;SDS011;17371;51.328;3.860;2023-03-14T07:22:38;6.57;;;1.13;;
30605;SDS011;17371;51.328;3.860;2023-03-14T07:25:03;5.57;;;1.40;;
30605;SDS011;17371;51.328;3.860;2023-03-14T07:27:29;3.70;;;1.30;;
30605;SDS011;17371;51.328;3.860;2023-03-14T07:29:54;2.40;;;1.00;;
30605;SDS011;17371;51.328;3.860;2023-03-14T07:32:20;7.40;;;2.03;;
30605;SDS011;17371;51.328;3.860;2023-03-14T07:34:46;5.43;;;1.60;;
30605;SDS011;17371;51.328;3.860;2023-03-14T07:37:12;13.57;;;1.92;;
30605;SDS011;17371;51.328;3.860;2023-03-14T07:39:37;6.03;;;1.60;;
30605;SDS011;17371;51.328;3.860;2023-03-14T07:42:03;10.30;;;1.60;;
30605;SDS011;17371;51.328;3.860;2023-03-14T07:44:28;7.82;;;1.30;;
30605;SDS011;17371;51.328;3.860;2023-03-14T07:46:53;4.20;;;1.57;;
30605;SDS011;17371;51.328;3.860;2023-03-14T07:49:19;7.27;;;1.57;;
30605;SDS011;17371;51.328;3.860;2023-03-14T07:51:48;6.07;;;1.77;;
30605;SDS011;17371;51.328;3.860;2023-03-14T07:54:13;8.05;;;1.83;;
30605;SDS011;17371;51.328;3.860;2023-03-14T07:56:39;5.57;;;1.50;;
30605;SDS011;17371;51.328;3.860;2023-03-14T07:59:04;2.38;;;1.13;;
30605;SDS011;17371;51.328;3.860;2023-03-14T08:01:30;10.20;;;1.57;;
30605;SDS011;17371;51.328;3.860;2023-03-14T08:03:55;7.37;;;2.07;;
30605;SDS011;17371;51.328;3.860;2023-03-14T08:06:21;6.10;;;2.20;;
30605;SDS011;17371;51.328;3.860;2023-03-14T08:08:47;7.70;;;2.03;;
30605;SDS011;17371;51.328;3.860;2023-03-14T08:11:13;7.47;;;1.80;;
30605;SDS011;17371;51.328;3.860;2023-03-14T08:13:38;8.33;;;2.20;;
30605;SDS011;17371;51.328;3.860;2023-03-14T08:16:04;5.60;;;1.77;;
30605;SDS011;17371;51.328;3.860;2023-03-14T08:18:29;7.72;;;2.47;;
30605;SDS011;17371;51.328;3.860;2023-03-14T08:20:55;8.07;;;1.57;;
30605;SDS011;17371;51.328;3.860;2023-03-14T08:23:20;6.35;;;1.50;;
30605;SDS011;17371;51.328;3.860;2023-03-14T08:25:49;2.80;;;1.40;;
30605;SDS011;17371;51.328;3.860;2023-03-14T08:28:14;5.00;;;1.40;;
30605;SDS011;17371;51.328;3.860;2023-03-14T08:30:40;2.97;;;1.30;;
30605;SDS011;17371;51.328;3.860;2023-03-14T08:33:05;2.97;;;1.70;;
30605;SDS011;17371;51.328;3.860;2023-03-14T08:35:31;1.83;;;1.20;;
30605;SDS011;17371;51.328;3.860;2023-03-14T08:37:56;3.33;;;1.63;;
30605;SDS011;17371;51.328;3.860;2023-03-14T08:40:21;5.53;;;2.03;;
30605;SDS011;17371;51.328;3.860;2023-03-14T08:42:48;4.90;;;1.60;;
30605;SDS011;17371;51.328;3.860;2023-03-14T08:45:14;7.82;;;1.60;;
30605;SDS011;17371;51.328;3.860;2023-03-14T08:47:40;5.28;;;1.50;;
30605;SDS011;17371;51.328;3.860;2023-03-14T08:50:06;4.10;;;1.30;;
30605;SDS011;17371;51.328;3.860;2023-03-14T08:52:32;7.35;;;1.80;;
30605;SDS011;17371;51.328;3.860;2023-03-14T08:54:57;4.97;;;1.80;;
30605;SDS011;17371;51.328;3.860;2023-03-14T08:57:23;5.43;;;1.65;;
30605;SDS011;17371;51.328;3.860;2023-03-14T08:59:50;7.03;;;1.70;;
30605;SDS011;17371;51.328;3.860;2023-03-14T09:02:15;11.35;;;1.83;;
30605;SDS011;17371;51.328;3.860;2023-03-14T09:04:41;3.43;;;1.63;;
30605;SDS011;17371;51.328;3.860;2023-03-14T09:07:06;3.70;;;1.33;;
30605;SDS011;17371;51.328;3.860;2023-03-14T09:09:32;3.22;;;1.77;;
30605;SDS011;17371;51.328;3.860;2023-03-14T09:11:57;13.68;;;2.75;;
30605;SDS011;17371;51.328;3.860;2023-03-14T09:14:23;8.33;;;2.03;;
30605;SDS011;17371;51.328;3.860;2023-03-14T09:16:50;6.87;;;2.00;;
30605;SDS011;17371;51.328;3.860;2023-03-14T09:19:15;5.53;;;1.60;;
30605;SDS011;17371;51.328;3.860;2023-03-14T09:21:40;3.67;;;1.37;;
30605;SDS011;17371;51.328;3.860;2023-03-14T09:24:06;8.13;;;2.28;;
30605;SDS011;17371;51.328;3.860;2023-03-14T09:26:31;34.90;;;1.97;;
30605;SDS011;17371;51.328;3.860;2023-03-14T09:28:57;17.93;;;2.77;;
30605;SDS011;17371;51.328;3.860;2023-03-14T09:31:22;3.53;;;1.37;;
30605;SDS011;17371;51.328;3.860;2023-03-14T09:33:49;5.57;;;1.60;;
30605;SDS011;17371;51.328;3.860;2023-03-14T09:36:14;3.63;;;1.60;;
30605;SDS011;17371;51.328;3.860;2023-03-14T09:38:40;2.78;;;1.27;;
30605;SDS011;17371;51.328;3.860;2023-03-14T09:41:11;8.77;;;1.63;;
30605;SDS011;17371;51.328;3.860;2023-03-14T09:43:39;6.80;;;1.52;;
30605;SDS011;17371;51.328;3.860;2023-03-14T09:46:05;2.57;;;1.20;;
30605;SDS011;17371;51.328;3.860;2023-03-14T09:48:33;6.10;;;1.70;;
30605;SDS011;17371;51.328;3.860;2023-03-14T09:51:01;9.32;;;2.30;;
30605;SDS011;17371;51.328;3.860;2023-03-14T09:53:32;6.95;;;1.38;;
30605;SDS011;17371;51.328;3.860;2023-03-14T09:56:02;2.10;;;1.27;;
30605;SDS011;17371;51.328;3.860;2023-03-14T09:58:28;7.27;;;1.60;;
30605;SDS011;17371;51.328;3.860;2023-03-14T10:00:56;5.85;;;2.03;;
30605;SDS011;17371;51.328;3.860;2023-03-14T10:03:24;8.30;;;1.63;;
30605;SDS011;17371;51.328;3.860;2023-03-14T10:05:51;5.82;;;1.90;;
30605;SDS011;17371;51.328;3.860;2023-03-14T10:08:18;8.70;;;1.50;;
30605;SDS011;17371;51.328;3.860;2023-03-14T10:10:43;4.78;;;1.20;;
30605;SDS011;17371;51.328;3.860;2023-03-14T10:13:12;5.13;;;1.40;;
30605;SDS011;17371;51.328;3.860;2023-03-14T10:15:40;10.57;;;1.75;;
30605;SDS011;17371;51.328;3.860;2023-03-14T10:18:09;6.07;;;1.70;;
30605;SDS011;17371;51.328;3.860;2023-03-14T10:20:37;5.47;;;1.65;;
30605;SDS011;17371;51.328;3.860;2023-03-14T10:23:05;9.43;;;2.08;;
30605;SDS011;17371;51.328;3.860;2023-03-14T10:25:34;13.87;;;2.13;;
30605;SDS011;17371;51.328;3.860;2023-03-14T10:28:00;7.63;;;2.13;;
30605;SDS011;17371;51.328;3.860;2023-03-14T10:30:38;5.82;;;1.90;;
30605;SDS011;17371;51.328;3.860;2023-03-14T10:33:08;12.80;;;1.70;;
30605;SDS011;17371;51.328;3.860;2023-03-14T10:35:35;9.65;;;2.05;;
30605;SDS011;17371;51.328;3.860;2023-03-14T10:38:01;6.88;;;1.98;;
30605;SDS011;17371;51.328;3.860;2023-03-14T10:40:28;9.20;;;2.13;;
30605;SDS011;17371;51.328;3.860;2023-03-14T10:42:56;13.25;;;1.90;;
30605;SDS011;17371;51.328;3.860;2023-03-14T10:45:25;13.37;;;2.33;;
30605;SDS011;17371;51.328;3.860;2023-03-14T10:47:57;18.42;;;2.60;;
30605;SDS011;17371;51.328;3.860;2023-03-14T10:50:24;12.18;;;2.63;;
30605;SDS011;17371;51.328;3.860;2023-03-14T10:52:51;15.32;;;3.08;;
30605;SDS011;17371;51.328;3.860;2023-03-14T10:55:17;6.15;;;1.70;;
30605;SDS011;17371;51.328;3.860;2023-03-14T10:57:43;6.83;;;2.27;;
30605;SDS011;17371;51.328;3.860;2023-03-14T11:00:12;5.60;;;1.60;;
30605;SDS011;17371;51.328;3.860;2023-03-14T11:02:45;5.72;;;1.55;;
30605;SDS011;17371;51.328;3.860;2023-03-14T11:05:18;15.90;;;2.10;;
30605;SDS011;17371;51.328;3.860;2023-03-14T11:07:49;5.78;;;1.30;;
30605;SDS011;17371;51.328;3.860;2023-03-14T11:10:18;10.67;;;2.00;;
30605;SDS011;17371;51.328;3.860;2023-03-14T11:12:49;14.68;;;1.80;;
30605;SDS011;17371;51.328;3.860;2023-03-14T11:15:22;5.43;;;1.73;;
30605;SDS011;17371;51.328;3.860;2023-03-14T11:17:53;12.32;;;1.67;;
30605;SDS011;17371;51.328;3.860;2023-03-14T11:20:32;9.20;;;2.28;;
30605;SDS011;17371;51.328;3.860;2023-03-14T11:23:02;7.57;;;2.60;;
30605;SDS011;17371;51.328;3.860;2023-03-14T11:25:31;11.18;;;2.83;;
30605;SDS011;17371;51.328;3.860;2023-03-14T11:28:00;10.25;;;2.30;;
30605;SDS011;17371;51.328;3.860;2023-03-14T11:30:32;7.97;;;2.72;;
30605;SDS011;17371;51.328;3.860;2023-03-14T11:33:01;13.88;;;3.15;;
30605;SDS011;17371;51.328;3.860;2023-03-14T11:35:30;11.33;;;2.67;;
30605;SDS011;17371;51.328;3.860;2023-03-14T11:37:58;15.27;;;2.92;;
30605;SDS011;17371;51.328;3.860;2023-03-14T11:40:28;11.75;;;2.55;;
30605;SDS011;17371;51.328;3.860;2023-03-14T11:42:56;31.35;;;2.63;;
30605;SDS011;17371;51.328;3.860;2023-03-14T11:45:30;25.08;;;2.97;;
30605;SDS011;17371;51.328;3.860;2023-03-14T11:48:06;20.95;;;2.92;;
30605;SDS011;17371;51.328;3.860;2023-03-14T11:50:38;12.32;;;2.38;;
30605;SDS011;17371;51.328;3.860;2023-03-14T11:53:04;11.77;;;2.10;;
30605;SDS011;17371;51.328;3.860;2023-03-14T11:55:34;26.08;;;3.38;;
30605;SDS011;17371;51.328;3.860;2023-03-14T11:58:01;8.95;;;2.72;;
30605;SDS011;17371;51.328;3.860;2023-03-14T12:00:28;11.88;;;2.95;;
30605;SDS011;17371;51.328;3.860;2023-03-14T12:02:56;16.40;;;2.30;;
30605;SDS011;17371;51.328;3.860;2023-03-14T12:05:36;16.13;;;3.40;;
30605;SDS011;17371;51.328;3.860;2023-03-14T12:10:58;16.90;;;3.60;;
30605;SDS011;17371;51.328;3.860;2023-03-14T12:13:27;14.40;;;3.53;;
30605;SDS011;17371;51.328;3.860;2023-03-14T12:15:54;14.47;;;2.37;;
30605;SDS011;17371;51.328;3.860;2023-03-14T12:18:26;16.38;;;2.75;;
30605;SDS011;17371;51.328;3.860;2023-03-14T12:20:53;11.93;;;2.80;;
30605;SDS011;17371;51.328;3.860;2023-03-14T12:23:19;9.43;;;2.10;;
30605;SDS011;17371;51.328;3.860;2023-03-14T12:25:45;12.53;;;2.33;;
30605;SDS011;17371;51.328;3.860;2023-03-14T12:28:18;12.55;;;3.03;;
30605;SDS011;17371;51.328;3.860;2023-03-14T12:30:45;14.52;;;2.55;;
30605;SDS011;17371;51.328;3.860;2023-03-14T12:36:02;9.68;;;1.95;;
30605;SDS011;17371;51.328;3.860;2023-03-14T12:38:52;6.80;;;2.38;;
30605;SDS011;17371;51.328;3.860;2023-03-14T12:41:24;11.95;;;2.08;;
30605;SDS011;17371;51.328;3.860;2023-03-14T12:43:52;11.45;;;2.83;;
30605;SDS011;17371;51.328;3.860;2023-03-14T12:46:22;15.90;;;2.50;;
30605;SDS011;17371;51.328;3.860;2023-03-14T12:48:50;13.10;;;2.88;;
30605;SDS011;17371;51.328;3.860;2023-03-14T12:51:20;11.80;;;2.60;;
30605;SDS011;17371;51.328;3.860;2023-03-14T12:54:04;8.25;;;2.47;;
30605;SDS011;17371;51.328;3.860;2023-03-14T12:56:41;10.38;;;2.03;;
30605;SDS011;17371;51.328;3.860;2023-03-14T12:59:28;6.18;;;1.77;;
30605;SDS011;17371;51.328;3.860;2023-03-14T13:01:56;6.50;;;2.08;;
30605;SDS011;17371;51.328;3.860;2023-03-14T13:04:31;6.57;;;2.17;;
30605;SDS011;17371;51.328;3.860;2023-03-14T13:06:58;10.35;;;2.08;;
30605;SDS011;17371;51.328;3.860;2023-03-14T13:09:49;7.32;;;2.10;;
30605;SDS011;17371;51.328;3.860;2023-03-14T13:12:17;10.13;;;3.10;;
30605;SDS011;17371;51.328;3.860;2023-03-14T13:14:43;10.88;;;2.15;;
30605;SDS011;17371;51.328;3.860;2023-03-14T13:17:10;7.50;;;1.73;;
30605;SDS011;17371;51.328;3.860;2023-03-14T13:19:37;5.78;;;1.85;;
30605;SDS011;17371;51.328;3.860;2023-03-14T13:22:04;5.80;;;1.83;;
30605;SDS011;17371;51.328;3.860;2023-03-14T13:24:32;7.63;;;2.65;;
30605;SDS011;17371;51.328;3.860;2023-03-14T13:26:59;6.67;;;2.13;;
30605;SDS011;17371;51.328;3.860;2023-03-14T13:29:25;5.50;;;1.60;;
30605;SDS011;17371;51.328;3.860;2023-03-14T13:31:51;4.20;;;1.47;;
30605;SDS011;17371;51.328;3.860;2023-03-14T13:34:17;2.55;;;1.42;;
30605;SDS011;17371;51.328;3.860;2023-03-14T13:36:44;6.32;;;1.40;;
30605;SDS011;17371;51.328;3.860;2023-03-14T13:39:10;3.33;;;1.27;;
30605;SDS011;17371;51.328;3.860;2023-03-14T13:41:38;3.77;;;1.17;;
30605;SDS011;17371;51.328;3.860;2023-03-14T13:44:05;2.25;;;1.50;;
30605;SDS011;17371;51.328;3.860;2023-03-14T13:46:32;3.20;;;1.38;;
30605;SDS011;17371;51.328;3.860;2023-03-14T13:49:00;2.05;;;1.30;;
30605;SDS011;17371;51.328;3.860;2023-03-14T13:51:27;2.50;;;1.15;;
30605;SDS011;17371;51.328;3.860;2023-03-14T13:53:54;3.30;;;0.93;;
30605;SDS011;17371;51.328;3.860;2023-03-14T13:56:21;3.75;;;1.10;;
30605;SDS011;17371;51.328;3.860;2023-03-14T13:58:48;3.20;;;1.40;;
30605;SDS011;17371;51.328;3.860;2023-03-14T14:01:14;4.30;;;1.23;;
30605;SDS011;17371;51.328;3.860;2023-03-14T14:03:41;2.78;;;1.30;;
30605;SDS011;17371;51.328;3.860;2023-03-14T14:06:09;4.05;;;1.70;;
30605;SDS011;17371;51.328;3.860;2023-03-14T14:08:41;7.97;;;2.08;;
30605;SDS011;17371;51.328;3.860;2023-03-14T14:11:08;3.73;;;1.40;;
30605;SDS011;17371;51.328;3.860;2023-03-14T14:13:36;3.85;;;1.80;;
30605;SDS011;17371;51.328;3.860;2023-03-14T14:16:01;6.53;;;1.90;;
30605;SDS011;17371;51.328;3.860;2023-03-14T14:18:27;6.47;;;1.65;;
30605;SDS011;17371;51.328;3.860;2023-03-14T14:20:53;3.00;;;1.60;;
30605;SDS011;17371;51.328;3.860;2023-03-14T14:23:20;9.48;;;1.83;;
30605;SDS011;17371;51.328;3.860;2023-03-14T14:25:48;7.65;;;2.05;;
30605;SDS011;17371;51.328;3.860;2023-03-14T14:28:17;6.60;;;2.33;;
30605;SDS011;17371;51.328;3.860;2023-03-14T14:30:45;9.10;;;2.53;;
30605;SDS011;17371;51.328;3.860;2023-03-14T14:33:12;3.70;;;1.30;;
30605;SDS011;17371;51.328;3.860;2023-03-14T14:35:42;2.88;;;1.63;;
30605;SDS011;17371;51.328;3.860;2023-03-14T14:38:16;6.55;;;1.75;;
30605;SDS011;17371;51.328;3.860;2023-03-14T14:40:45;3.65;;;1.85;;
30605;SDS011;17371;51.328;3.860;2023-03-14T14:43:14;3.00;;;1.40;;
30605;SDS011;17371;51.328;3.860;2023-03-14T14:45:43;6.93;;;1.90;;
30605;SDS011;17371;51.328;3.860;2023-03-14T14:48:10;4.80;;;1.58;;
30605;SDS011;17371;51.328;3.860;2023-03-14T14:50:37;6.20;;;1.77;;